Inicio METAR Ruta Wind Satelite

Informe Meteorológico

Fecha: 2020/09/22 23:08:25 Local
2020.09.23 04:08 UTC


Estado: VENCIDO
Operación:VFR
Santa Marta / Simon Bolivar, Colombia (SKSM) 11-08N 074-14W 14M
2020.09.22 2000 UTC
Wind: from the NNW (340 degrees) at 9 MPH (8 KT):0
Visibility: greater than 7 mile(s):0
Sky conditions: partly cloudy
Weather: thunder; Cumulonimbus clouds observed
Temperature: 87 F (31 C)
Heat index: 102.4 F (39.1 C):1
Dew Point: 80 F (27 C)
Relative Humidity: 79%
Pressure (altimeter): 29.85 in. Hg (1010 hPa)
ob: SKSM 222000Z 34008KT 9999 TS FEW017CB SCT100 31/27 A2985 RMK CB/E
cycle: 20

SKSM 221900Z 33008KT 9999 FEW017TCU BKN200 32/27 A2981 RMK TCU/E
SKSM 221800Z 31006KT 9999 SCT017TCU BKN200 32/26 A2984 RMK TCU/E
SKSM 221700Z 28004KT 9999 FEW020 BKN200 31/25 A2985
SKSM 221600Z 31006KT 9999 FEW020 31/25 A2988
SKSM 221500Z 25005KT 9999 FEW020 30/25 A2989